createdAt,value
2023-03-17T00:00:26.682Z,18.60
2023-03-17T00:02:54.612Z,18.60
2023-03-17T00:05:24.300Z,18.60
2023-03-17T00:07:53.010Z,18.60
2023-03-17T00:10:22.653Z,18.60
2023-03-17T00:12:51.389Z,18.60
2023-03-17T00:15:20.487Z,18.60
2023-03-17T00:17:50.109Z,18.60
2023-03-17T00:20:23.975Z,18.60
2023-03-17T00:22:51.879Z,18.60
2023-03-17T00:25:24.836Z,18.60
2023-03-17T00:27:53.371Z,18.60
2023-03-17T00:30:22.614Z,18.60
2023-03-17T00:32:53.799Z,18.60
2023-03-17T00:35:23.868Z,18.60
2023-03-17T00:37:53.572Z,18.60
2023-03-17T00:40:23.161Z,18.60
2023-03-17T00:42:52.199Z,18.60
2023-03-17T00:45:21.280Z,18.60
2023-03-17T00:47:49.958Z,18.60
2023-03-17T00:50:22.096Z,18.60
2023-03-17T00:52:50.463Z,18.60
2023-03-17T00:55:18.460Z,18.60
2023-03-17T00:57:46.458Z,18.60
2023-03-17T01:00:22.945Z,18.60
2023-03-17T01:02:51.333Z,18.60
2023-03-17T01:05:20.980Z,18.60
2023-03-17T01:07:52.881Z,18.60
2023-03-17T01:10:22.507Z,18.60
2023-03-17T01:12:51.633Z,18.60
2023-03-17T01:15:19.858Z,18.60
2023-03-17T01:17:47.801Z,18.60
2023-03-17T01:20:17.733Z,18.60
2023-03-17T01:22:46.947Z,18.60
2023-03-17T01:25:14.906Z,18.60
2023-03-17T01:27:42.897Z,18.60
2023-03-17T01:30:22.435Z,18.60
2023-03-17T01:32:51.035Z,18.60
2023-03-17T01:35:19.612Z,18.60
2023-03-17T01:37:48.883Z,18.60
2023-03-17T01:40:19.085Z,18.60
2023-03-17T01:42:54.178Z,18.60
2023-03-17T01:45:59.781Z,18.60
2023-03-17T01:48:29.024Z,18.60
2023-03-17T01:50:56.918Z,18.60
2023-03-17T01:53:26.141Z,18.60
2023-03-17T01:55:54.781Z,18.60
2023-03-17T01:58:24.126Z,18.60
2023-03-17T02:00:52.125Z,18.60
2023-03-17T02:03:20.063Z,18.60
2023-03-17T02:05:48.537Z,18.60
2023-03-17T02:08:16.541Z,18.60
2023-03-17T02:10:46.294Z,18.60
2023-03-17T02:13:14.414Z,18.60
2023-03-17T02:15:42.981Z,18.60
2023-03-17T02:18:11.552Z,18.50
2023-03-17T02:21:21.878Z,18.50
2023-03-17T02:23:51.300Z,18.50
2023-03-17T02:26:19.214Z,18.50
2023-03-17T02:28:47.151Z,18.50
2023-03-17T02:31:15.567Z,18.50
2023-03-17T02:33:44.923Z,18.50
2023-03-17T02:36:12.825Z,18.50
2023-03-17T02:38:41.190Z,18.40
2023-03-17T02:41:10.606Z,18.50
2023-03-17T02:43:41.315Z,18.40
2023-03-17T02:46:09.303Z,18.50
2023-03-17T02:48:37.999Z,18.40
2023-03-17T02:51:06.120Z,18.40
2023-03-17T02:53:34.022Z,18.40
2023-03-17T02:56:02.126Z,18.40
2023-03-17T02:58:31.419Z,18.40
2023-03-17T03:00:59.339Z,18.40
2023-03-17T03:03:27.593Z,18.40
2023-03-17T03:05:55.442Z,18.40
2023-03-17T03:08:23.340Z,18.50
2023-03-17T03:10:51.223Z,18.50
2023-03-17T03:13:19.140Z,18.50
2023-03-17T03:15:48.613Z,18.50
2023-03-17T03:18:16.543Z,18.50
2023-03-17T03:20:45.005Z,18.50
2023-03-17T03:23:12.903Z,18.50
2023-03-17T03:25:40.846Z,18.50
2023-03-17T03:28:09.072Z,18.50
2023-03-17T03:30:37.407Z,18.50
2023-03-17T03:33:06.857Z,18.60
2023-03-17T03:35:35.385Z,18.50
2023-03-17T03:38:03.399Z,18.50
2023-03-17T03:40:31.788Z,18.50
2023-03-17T03:43:00.475Z,18.50
2023-03-17T03:45:29.229Z,18.50
2023-03-17T03:47:57.134Z,18.50
2023-03-17T03:50:26.354Z,18.50
2023-03-17T03:52:54.212Z,18.50
2023-03-17T03:55:22.120Z,18.50
2023-03-17T03:57:49.982Z,18.50
2023-03-17T04:00:18.922Z,18.50
2023-03-17T04:02:47.066Z,18.60
2023-03-17T04:05:15.503Z,18.50
2023-03-17T04:07:44.874Z,18.50
2023-03-17T04:10:13.007Z,18.60
2023-03-17T04:12:41.135Z,18.50
2023-03-17T04:15:10.613Z,18.50
2023-03-17T04:17:38.557Z,18.50
2023-03-17T04:20:07.603Z,18.60
2023-03-17T04:22:35.466Z,18.60
2023-03-17T04:25:05.547Z,18.60
2023-03-17T04:27:33.414Z,18.60
2023-03-17T04:30:01.557Z,18.60
2023-03-17T04:32:29.518Z,18.60
2023-03-17T04:34:57.878Z,18.60
2023-03-17T04:37:25.863Z,18.60
2023-03-17T04:39:55.183Z,18.60
2023-03-17T04:42:24.458Z,18.60
2023-03-17T04:44:52.325Z,18.60
2023-03-17T04:47:20.194Z,18.60
2023-03-17T04:49:48.071Z,18.60
2023-03-17T04:52:15.986Z,18.60
2023-03-17T04:54:43.983Z,18.60
2023-03-17T04:57:12.235Z,18.60
2023-03-17T04:59:41.475Z,18.60
2023-03-17T05:02:09.384Z,18.60
2023-03-17T05:04:37.638Z,18.60
2023-03-17T05:07:05.679Z,18.60
2023-03-17T05:09:33.567Z,18.60
2023-03-17T05:12:01.660Z,18.60
2023-03-17T05:14:29.673Z,18.60
2023-03-17T05:16:58.925Z,18.60
2023-03-17T05:19:26.925Z,18.60
2023-03-17T05:21:54.848Z,18.60
2023-03-17T05:24:22.717Z,18.60
2023-03-17T05:26:50.667Z,18.60
2023-03-17T05:29:18.535Z,18.60
2023-03-17T05:31:46.396Z,18.60
2023-03-17T05:34:16.001Z,18.60
2023-03-17T05:36:44.629Z,18.60
2023-03-17T05:39:14.493Z,18.50
2023-03-17T05:41:42.640Z,18.60
2023-03-17T05:44:10.615Z,18.60
2023-03-17T05:46:38.475Z,18.60
2023-03-17T05:49:06.380Z,18.60
2023-03-17T05:51:37.027Z,18.60
2023-03-17T05:54:05.105Z,18.60
2023-03-17T05:56:33.699Z,18.60
2023-03-17T05:59:02.344Z,18.60
2023-03-17T06:01:30.920Z,18.60
2023-03-17T06:04:00.910Z,18.60
2023-03-17T06:06:28.878Z,18.60
2023-03-17T06:08:58.136Z,18.60
2023-03-17T06:11:26.689Z,18.60
2023-03-17T06:13:54.662Z,18.60
2023-03-17T06:16:22.891Z,18.60
2023-03-17T06:18:50.769Z,18.70
2023-03-17T06:21:18.656Z,18.70
2023-03-17T06:23:46.571Z,18.70
2023-03-17T06:26:15.900Z,18.70
2023-03-17T06:28:43.766Z,18.70
2023-03-17T06:31:12.021Z,18.70
2023-03-17T06:33:39.917Z,18.70
2023-03-17T06:36:08.833Z,18.70
2023-03-17T06:38:36.803Z,18.70
2023-03-17T06:41:04.769Z,18.70
2023-03-17T06:43:34.053Z,18.70
2023-03-17T06:46:02.273Z,18.70
2023-03-17T06:48:30.208Z,18.70
2023-03-17T06:50:58.133Z,18.70
2023-03-17T06:53:26.154Z,18.70
2023-03-17T06:55:54.104Z,18.70
2023-03-17T06:58:21.993Z,18.70
2023-03-17T07:00:53.981Z,18.70
2023-03-17T07:03:22.497Z,18.70
2023-03-17T07:05:50.371Z,18.70
2023-03-17T07:08:18.389Z,18.70
2023-03-17T07:10:46.370Z,18.70
2023-03-17T07:13:14.678Z,18.70
2023-03-17T07:15:42.958Z,18.70
2023-03-17T07:18:12.445Z,18.70
2023-03-17T07:20:40.945Z,18.70
2023-03-17T07:23:10.805Z,18.70
2023-03-17T07:25:39.225Z,18.70
2023-03-17T07:28:07.098Z,18.70
2023-03-17T07:30:35.010Z,18.70
2023-03-17T07:33:04.057Z,18.70
2023-03-17T07:35:34.646Z,18.70
2023-03-17T07:38:02.984Z,18.70
2023-03-17T07:40:34.184Z,18.60
2023-03-17T07:43:04.557Z,18.60
2023-03-17T07:45:33.444Z,18.60
2023-03-17T07:48:01.837Z,18.60
2023-03-17T07:50:29.836Z,18.60
2023-03-17T07:52:59.078Z,18.60
2023-03-17T07:55:27.344Z,18.60
2023-03-17T07:57:55.281Z,18.60
2023-03-17T08:00:23.591Z,18.50
2023-03-17T08:03:06.915Z,18.50
2023-03-17T08:05:37.110Z,18.50
2023-03-17T08:08:06.958Z,18.50
2023-03-17T08:10:35.387Z,18.50
2023-03-17T08:13:03.862Z,18.50
2023-03-17T08:15:32.261Z,18.50
2023-03-17T08:18:01.017Z,18.50
2023-03-17T08:20:29.871Z,18.50
2023-03-17T08:22:58.040Z,18.50
2023-03-17T08:25:27.354Z,18.40
2023-03-17T08:27:55.880Z,18.40
2023-03-17T08:30:23.819Z,18.40
2023-03-17T08:32:52.325Z,18.40
2023-03-17T08:35:20.848Z,18.40
2023-03-17T08:37:48.855Z,18.40
2023-03-17T08:40:17.986Z,18.40
2023-03-17T08:42:48.141Z,18.40
2023-03-17T08:45:16.798Z,18.40
2023-03-17T08:47:44.759Z,18.40
2023-03-17T08:50:16.702Z,18.30
2023-03-17T08:52:44.971Z,18.40
2023-03-17T08:55:13.056Z,18.30
2023-03-17T08:57:40.999Z,18.30
2023-03-17T09:00:11.923Z,18.30
2023-03-17T09:02:39.917Z,18.40
2023-03-17T09:05:08.171Z,18.40
2023-03-17T09:07:36.539Z,18.40
2023-03-17T09:10:05.537Z,18.40
2023-03-17T09:12:34.315Z,18.40
2023-03-17T09:15:02.852Z,18.40
2023-03-17T09:17:32.085Z,18.40
2023-03-17T09:20:00.444Z,18.40
2023-03-17T09:22:28.397Z,18.40
2023-03-17T09:24:56.311Z,18.30
2023-03-17T09:27:24.284Z,18.30
2023-03-17T09:29:52.185Z,18.30
2023-03-17T09:32:20.080Z,18.30
2023-03-17T09:34:51.481Z,18.30
2023-03-17T09:37:19.552Z,18.30
2023-03-17T09:39:47.471Z,18.30
2023-03-17T09:42:21.357Z,18.30
2023-03-17T09:45:03.250Z,18.30
2023-03-17T09:47:55.954Z,18.40
2023-03-17T09:50:30.603Z,18.30
2023-03-17T09:52:58.712Z,18.30
2023-03-17T09:55:28.629Z,18.40
2023-03-17T09:57:56.962Z,18.40
2023-03-17T10:00:29.104Z,18.30
2023-03-17T10:02:57.866Z,18.30
2023-03-17T10:05:26.855Z,18.30
2023-03-17T10:08:04.318Z,18.40
2023-03-17T10:10:36.622Z,18.40
2023-03-17T10:13:08.444Z,18.30
2023-03-17T10:15:38.388Z,18.30
2023-03-17T10:18:10.872Z,18.30
2023-03-17T10:20:39.931Z,18.30
2023-03-17T10:23:09.370Z,18.30
2023-03-17T10:25:37.496Z,18.30
2023-03-17T10:28:09.176Z,18.30
2023-03-17T10:30:37.297Z,18.30
2023-03-17T10:33:07.194Z,18.30
2023-03-17T10:35:36.512Z,18.30
2023-03-17T10:38:15.848Z,18.30
2023-03-17T10:40:47.751Z,18.30
2023-03-17T10:43:18.965Z,18.30
2023-03-17T10:45:48.697Z,18.30
2023-03-17T10:48:18.883Z,18.30
2023-03-17T10:50:49.294Z,18.30
2023-03-17T10:53:28.058Z,18.30
2023-03-17T10:55:58.710Z,18.30
2023-03-17T10:58:37.345Z,18.30
2023-03-17T11:01:07.720Z,18.30
2023-03-17T11:03:38.746Z,18.30
2023-03-17T11:06:08.521Z,18.30
2023-03-17T11:08:39.723Z,18.30
2023-03-17T11:11:10.186Z,18.30
2023-03-17T11:13:38.253Z,18.30
2023-03-17T11:16:10.617Z,18.30
2023-03-17T11:18:39.100Z,18.30
2023-03-17T11:21:08.141Z,18.30
2023-03-17T11:24:02.211Z,18.30
2023-03-17T11:26:49.762Z,18.30
2023-03-17T11:29:23.726Z,18.30
2023-03-17T11:31:57.349Z,18.40
2023-03-17T11:34:31.188Z,18.40
2023-03-17T11:37:02.363Z,18.40
2023-03-17T11:39:33.989Z,18.40
2023-03-17T11:42:07.303Z,18.40
2023-03-17T11:45:02.608Z,18.40
2023-03-17T11:47:42.864Z,18.40
2023-03-17T11:50:18.006Z,18.40
2023-03-17T11:52:53.202Z,18.40
2023-03-17T11:55:23.523Z,18.40
2023-03-17T11:57:54.764Z,18.40
2023-03-17T12:00:26.435Z,18.40
2023-03-17T12:02:56.297Z,18.40
2023-03-17T12:05:25.228Z,18.40
2023-03-17T12:07:54.921Z,18.40
2023-03-17T12:10:25.622Z,18.40
2023-03-17T12:12:55.917Z,18.40
2023-03-17T12:15:29.339Z,18.40
2023-03-17T12:17:58.698Z,18.40
2023-03-17T12:20:30.919Z,18.40
2023-03-17T12:23:00.270Z,18.40
2023-03-17T12:25:32.688Z,18.40
2023-03-17T12:28:02.414Z,18.40
2023-03-17T12:30:33.118Z,18.30
2023-03-17T12:33:07.894Z,18.40
2023-03-17T12:35:37.603Z,18.30
2023-03-17T12:38:08.984Z,18.30
2023-03-17T12:40:41.802Z,18.30
2023-03-17T12:43:54.006Z,18.30
2023-03-17T12:46:41.876Z,18.30
2023-03-17T12:49:33.716Z,18.30
2023-03-17T12:52:17.879Z,18.30
2023-03-17T12:54:46.624Z,18.30
2023-03-17T12:57:18.496Z,18.30
2023-03-17T12:59:47.780Z,18.30
2023-03-17T13:02:18.399Z,18.30
2023-03-17T13:04:53.592Z,18.30
2023-03-17T13:07:23.295Z,18.20
2023-03-17T13:09:53.103Z,18.20
2023-03-17T13:13:03.666Z,18.20
2023-03-17T13:15:54.574Z,18.20
2023-03-17T13:18:53.933Z,18.20
2023-03-17T13:21:26.369Z,18.20
2023-03-17T13:23:59.115Z,18.20
2023-03-17T13:26:56.540Z,18.20
2023-03-17T13:29:26.218Z,18.20
2023-03-17T13:32:10.457Z,18.20
2023-03-17T13:34:46.225Z,18.20
2023-03-17T13:37:18.893Z,18.20
2023-03-17T13:40:10.243Z,18.20
2023-03-17T13:42:50.826Z,18.20
2023-03-17T13:45:24.662Z,18.20
2023-03-17T13:47:55.532Z,18.20
2023-03-17T13:50:24.437Z,18.30
2023-03-17T13:52:56.119Z,18.30
2023-03-17T13:55:38.188Z,18.30
2023-03-17T13:58:24.943Z,18.30
2023-03-17T14:00:58.772Z,18.30
2023-03-17T14:03:32.186Z,18.40
2023-03-17T14:06:00.143Z,18.30
2023-03-17T14:08:30.824Z,18.40
2023-03-17T14:11:00.685Z,18.40
2023-03-17T14:13:31.733Z,18.40
2023-03-17T14:16:03.785Z,18.40
2023-03-17T14:18:34.040Z,18.40
2023-03-17T14:21:08.458Z,18.40
2023-03-17T14:23:37.823Z,18.40
2023-03-17T14:26:07.705Z,18.40
2023-03-17T14:28:35.948Z,18.40
2023-03-17T14:31:04.808Z,18.40
2023-03-17T14:33:34.844Z,18.40
2023-03-17T14:36:04.273Z,18.40
2023-03-17T14:38:33.209Z,18.40
2023-03-17T14:41:01.771Z,18.50
2023-03-17T14:43:29.779Z,18.50
2023-03-17T14:46:01.444Z,18.40
2023-03-17T14:48:31.825Z,18.40
2023-03-17T14:51:05.612Z,18.40
2023-03-17T14:53:34.231Z,18.40
2023-03-17T14:56:03.188Z,18.40
2023-03-17T14:58:32.456Z,18.40
2023-03-17T15:01:04.102Z,18.40
2023-03-17T15:03:34.240Z,18.40
2023-03-17T15:06:09.119Z,18.40
2023-03-17T15:08:45.916Z,18.40
2023-03-17T15:11:19.362Z,18.40
2023-03-17T15:13:47.287Z,18.40
2023-03-17T15:16:21.971Z,18.40
2023-03-17T15:18:51.326Z,18.30
2023-03-17T15:21:25.399Z,18.30
2023-03-17T15:23:53.659Z,18.30
2023-03-17T15:26:23.225Z,18.40
2023-03-17T15:28:51.125Z,18.40
2023-03-17T15:31:23.377Z,18.40
2023-03-17T15:33:52.777Z,18.30
2023-03-17T15:36:31.947Z,18.30
2023-03-17T15:39:01.849Z,18.30
2023-03-17T15:41:29.758Z,18.30
2023-03-17T15:43:57.755Z,18.30
2023-03-17T15:46:27.433Z,18.30
2023-03-17T15:48:55.652Z,18.30
2023-03-17T15:51:23.548Z,18.30
2023-03-17T15:53:51.638Z,18.30
2023-03-17T15:56:21.621Z,18.30
2023-03-17T15:58:52.479Z,18.30
2023-03-17T16:01:20.751Z,18.30
2023-03-17T16:03:48.759Z,18.30
2023-03-17T16:06:18.111Z,18.30
2023-03-17T16:08:46.425Z,18.30
2023-03-17T16:11:16.538Z,18.30
2023-03-17T16:13:46.156Z,18.30
2023-03-17T16:16:21.402Z,18.30
2023-03-17T16:18:50.323Z,18.20
2023-03-17T16:21:19.155Z,18.20
2023-03-17T16:23:47.111Z,18.20
2023-03-17T16:26:16.932Z,18.20
2023-03-17T16:28:47.608Z,18.20
2023-03-17T16:31:19.126Z,18.20
2023-03-17T16:33:47.320Z,18.30
2023-03-17T16:36:16.445Z,18.30
2023-03-17T16:38:44.572Z,18.30
2023-03-17T16:41:20.458Z,18.30
2023-03-17T16:43:55.268Z,18.30
2023-03-17T16:46:23.413Z,18.40
2023-03-17T16:48:51.613Z,18.30
2023-03-17T16:51:19.552Z,18.40
2023-03-17T16:53:47.566Z,18.40
2023-03-17T16:56:17.683Z,18.40
2023-03-17T16:58:45.940Z,18.40
2023-03-17T17:01:16.854Z,18.40
2023-03-17T17:03:44.980Z,18.40
2023-03-17T17:06:14.279Z,18.40
2023-03-17T17:08:43.248Z,18.40
2023-03-17T17:11:12.931Z,18.40
2023-03-17T17:13:41.352Z,18.40
2023-03-17T17:16:12.966Z,18.40
2023-03-17T17:18:42.212Z,18.40
2023-03-17T17:21:10.098Z,18.40
2023-03-17T17:23:37.972Z,18.40
2023-03-17T17:26:06.161Z,18.40
2023-03-17T17:28:34.095Z,18.30
2023-03-17T17:31:02.020Z,18.30
2023-03-17T17:33:29.951Z,18.40
2023-03-17T17:35:59.221Z,18.40
2023-03-17T17:38:27.941Z,18.30
2023-03-17T17:40:56.365Z,18.30
2023-03-17T17:43:24.976Z,18.30
2023-03-17T17:45:53.032Z,18.30
2023-03-17T17:48:22.518Z,18.30
2023-03-17T17:50:50.569Z,18.30
2023-03-17T17:53:19.924Z,18.30
2023-03-17T17:55:48.624Z,18.30
2023-03-17T17:58:17.020Z,18.30
2023-03-17T18:00:45.127Z,18.30
2023-03-17T18:03:13.107Z,18.30
2023-03-17T18:05:41.053Z,18.30
2023-03-17T18:08:08.983Z,18.30
2023-03-17T18:10:38.307Z,18.20
2023-03-17T18:13:06.240Z,18.30
2023-03-17T18:15:34.136Z,18.20
2023-03-17T18:18:02.064Z,18.20
2023-03-17T18:20:30.961Z,18.20
2023-03-17T18:22:59.093Z,18.20
2023-03-17T18:25:27.469Z,18.20
2023-03-17T18:27:56.838Z,18.20
2023-03-17T18:30:26.329Z,18.20
2023-03-17T18:32:55.161Z,18.20
2023-03-17T18:35:24.186Z,18.10
2023-03-17T18:37:52.130Z,18.10
2023-03-17T18:40:20.595Z,18.10
2023-03-17T18:42:48.496Z,18.10
2023-03-17T18:45:17.964Z,18.10
2023-03-17T18:47:45.954Z,18.10
2023-03-17T18:50:14.874Z,18.10
2023-03-17T18:52:43.626Z,18.20
2023-03-17T18:55:12.562Z,18.20
2023-03-17T18:57:42.550Z,18.20
2023-03-17T19:00:13.295Z,18.20
2023-03-17T19:02:42.516Z,18.20
2023-03-17T19:05:11.542Z,18.20
2023-03-17T19:07:40.617Z,18.20
2023-03-17T19:10:09.896Z,18.20
2023-03-17T19:12:38.153Z,18.30
2023-03-17T19:15:07.249Z,18.30
2023-03-17T19:17:35.194Z,18.30
2023-03-17T19:20:04.967Z,18.30
2023-03-17T19:22:32.876Z,18.30
2023-03-17T19:25:01.270Z,18.30
2023-03-17T19:27:29.257Z,18.30
2023-03-17T19:29:57.183Z,18.30
2023-03-17T19:32:25.135Z,18.30
2023-03-17T19:34:53.459Z,18.30
2023-03-17T19:37:22.766Z,18.30
2023-03-17T19:39:50.689Z,18.30
2023-03-17T19:42:18.603Z,18.30
2023-03-17T19:44:46.511Z,18.40
2023-03-17T19:47:14.425Z,18.30
2023-03-17T19:49:42.341Z,18.40
2023-03-17T19:52:10.582Z,18.40
2023-03-17T19:54:43.661Z,18.40
2023-03-17T19:57:12.087Z,18.40
2023-03-17T19:59:40.397Z,18.30
2023-03-17T20:02:08.401Z,18.30
2023-03-17T20:04:37.250Z,18.30
2023-03-17T20:07:05.504Z,18.30
2023-03-17T20:09:33.487Z,18.30
2023-03-17T20:12:02.928Z,18.30
2023-03-17T20:14:30.837Z,18.30
2023-03-17T20:16:58.732Z,18.30
2023-03-17T20:19:26.703Z,18.30
2023-03-17T20:21:54.644Z,18.30
2023-03-17T20:24:22.871Z,18.30
2023-03-17T20:26:51.640Z,18.30
2023-03-17T20:29:21.306Z,18.30
2023-03-17T20:31:49.258Z,18.20
2023-03-17T20:34:17.462Z,18.20
2023-03-17T20:36:46.024Z,18.20
2023-03-17T20:39:19.598Z,18.20
2023-03-17T20:41:48.150Z,18.20
2023-03-17T20:44:16.091Z,18.20
2023-03-17T20:46:45.777Z,18.20
2023-03-17T20:49:14.043Z,18.20
2023-03-17T20:51:41.999Z,18.20
2023-03-17T20:54:10.784Z,18.10
2023-03-17T20:56:39.653Z,18.10
2023-03-17T20:59:09.579Z,18.10
2023-03-17T21:01:38.795Z,18.10
2023-03-17T21:04:09.234Z,18.10
2023-03-17T21:06:37.280Z,18.10
2023-03-17T21:09:05.920Z,18.10
2023-03-17T21:11:33.817Z,18.10
2023-03-17T21:14:03.335Z,18.10
2023-03-17T21:16:31.381Z,18.10
2023-03-17T21:18:59.999Z,18.10
2023-03-17T21:21:29.432Z,18.10
2023-03-17T21:23:58.138Z,18.10
2023-03-17T21:26:26.324Z,18.10
2023-03-17T21:28:56.807Z,18.10
2023-03-17T21:31:24.874Z,18.10
2023-03-17T21:33:52.843Z,18.10
2023-03-17T21:36:21.225Z,18.00
2023-03-17T21:38:50.523Z,18.00
2023-03-17T21:41:22.856Z,18.00
2023-03-17T21:43:50.857Z,18.00
2023-03-17T21:46:18.763Z,18.00
2023-03-17T21:48:46.674Z,18.00
2023-03-17T21:51:14.578Z,18.00
2023-03-17T21:53:42.575Z,17.90
2023-03-17T21:56:12.619Z,17.90
2023-03-17T21:58:40.638Z,17.90
2023-03-17T22:01:09.145Z,17.90
2023-03-17T22:03:39.536Z,17.90
2023-03-17T22:06:08.403Z,17.90
2023-03-17T22:08:36.360Z,17.90
2023-03-17T22:11:07.834Z,17.90
2023-03-17T22:13:37.342Z,17.90
2023-03-17T22:16:05.749Z,17.90
2023-03-17T22:18:33.823Z,18.00
2023-03-17T22:21:01.807Z,18.00
2023-03-17T22:23:30.405Z,18.00
2023-03-17T22:25:58.466Z,18.00
2023-03-17T22:28:26.446Z,18.00
2023-03-17T22:30:56.064Z,18.00
2023-03-17T22:33:23.966Z,18.10
2023-03-17T22:35:51.936Z,18.10
2023-03-17T22:38:19.862Z,18.10
2023-03-17T22:40:47.764Z,18.10
2023-03-17T22:43:15.840Z,18.10
2023-03-17T22:45:43.753Z,18.10
2023-03-17T22:48:13.170Z,18.10
2023-03-17T22:50:43.215Z,18.20
2023-03-17T22:53:11.196Z,18.20
2023-03-17T22:55:39.123Z,18.20
2023-03-17T22:58:06.965Z,18.20
2023-03-17T23:00:36.118Z,18.20
2023-03-17T23:03:04.120Z,18.20
2023-03-17T23:05:33.361Z,18.20
2023-03-17T23:08:01.311Z,18.20
2023-03-17T23:10:29.237Z,18.30
2023-03-17T23:12:57.182Z,18.30
2023-03-17T23:15:25.320Z,18.30
2023-03-17T23:17:53.795Z,18.30
2023-03-17T23:20:21.773Z,18.30
2023-03-17T23:22:51.366Z,18.30
2023-03-17T23:25:19.585Z,18.30
2023-03-17T23:27:47.999Z,18.30
2023-03-17T23:30:17.773Z,18.30
2023-03-17T23:32:45.819Z,18.30
2023-03-17T23:35:14.150Z,18.40
2023-03-17T23:37:42.277Z,18.40
2023-03-17T23:40:15.446Z,18.40
2023-03-17T23:42:43.331Z,18.30
2023-03-17T23:45:11.975Z,18.40
2023-03-17T23:47:39.878Z,18.40
2023-03-17T23:50:08.835Z,18.40
2023-03-17T23:52:37.063Z,18.40
2023-03-17T23:55:05.899Z,18.40
2023-03-17T23:57:36.675Z,18.40
